Kish Island Airport
OIBK : now visible

Airfield :











YOU CAN JOIN US ON...

 
LOGIN :

Register | Disclaimer

   EN    FR    IT 

 









Legend :    VFR   Marginal VFR   IFR   Intensive IFR   Very Intensive IFR
Visi :
Ceiling :
>= 8 km
>= 3000ft
5 to 8 km
1000 to 3000 ft
1500m to 5 km
500 to 1000 ft
800 to 1500m
200 to 500 ft
< 800m
< 200 ft
Symbols :   Thunderstorms  Fog  Heavy snow  Heavy precipitations  Wind > 20 kt






- Airport Elevation : 101 ft
- IATA code : KIH


OIBK - Kish Island

CURRENT METAR :
  • 021600Z 32004KT 8000 NSC 24/18 Q1011

EXPIRED METARs :
  • 021500Z 32006KT 8000 NSC 24/18 Q1011 NOSIG
  • 021400Z 29006KT 8000 NSC 26/17 Q1011 NOSIG

TAF TAF OIBK
Valid from the 02 at 12:00 until the 03 at 18:00 UTC


021130Z 0212/0318 16006KT 7000 NSC
TEMPO 0212/0215 22016KT
BECMG 0221/0223 06004KT 4000 BR/HZ
TEMPO 0300/0303 2000 BR BKN030
BECMG 0304/0306 16008KT 7000
TEMPO 0308/0314 16018KT



MET'MAP, your aeronautical weather chart ! - Copyright ORBIFLY December 2007 - Disclaimer

ORBIFLY MET'MAP TEAM :

Programming & Development : Alexandra Zaïnal
Concept & original design : Baudouin d'Aumeries
Assistance for programming : Marc-Olivier Méhu
Technical & hardware support : Manuel Goepfert

Contact : metmap@orbifly.com




SOURCES & CREDITS :

   NOAA       Earth
Advisory